Dahlen, North Dakota
Current Conditions -  °F | °C
As of 3:58 AM on Tuesday 21 Oct 2014 (Local Time) from KRDR Reporting Station
Clear Clear  
Wind Chill: 32°   Ceiling: Unl
Heat Index: 38°   Visibility: 10mi
Dew Point: 38°   Wind: 8mph
Humidity: 99%   Direction: 170°S
Pressure: 30.04"   Gusts: NA
Location:  48.16°N, 97.93°W
Report Text: KRDR 210858Z AUTO 17007KT 10SM CLR 04/03 A3004 RMK AO2 SLP182 T00350034 56005
Loading
Personal Weather Stations






























Interactive Weather Map
Tropical Storm Tracking
New forecast layout! Learn more

10-Day Weather Forecast

Advertisements
Track Severe Weather on mobile